AAY141 KMRY-KLAS
Flight info
| Callsign | AAY141 |
|---|---|
| Flight time | 1h 8m |
| Altitude | 37000 |
| Route | SNS PXN NTELL Q174 FLCHR COKTL4 |
| Aircraft | A319/M-SDE3FGHIRWY/LB1 |
Departure
| Time | 2026-05-05 18:36 |
|---|---|
| Airport | Monterey Regional Airport (KMRY) |
Arrival
| Time | 2026-05-05 19:45 |
|---|---|
| Airport | Harry Reid International Airport (KLAS) |
| Time | Latitude | Longitude | Altitude | Speed | Heading |
|---|---|---|---|---|---|
| 2026-05-05 18:29 | 36.58749 | -121.85005 | 189 ft | 0 kts | 233° |
| 2026-05-05 18:29 | 36.58751 | -121.85001 | 188 ft | 0 kts | 233° |
| 2026-05-05 18:29 | 36.58760 | -121.84987 | 184 ft | 2 kts | 233° |
| 2026-05-05 18:29 | 36.58766 | -121.84978 | 182 ft | 1 kts | 234° |
| 2026-05-05 18:30 | 36.58777 | -121.84967 | 179 ft | 2 kts | 186° |
| 2026-05-05 18:30 | 36.58792 | -121.84971 | 178 ft | 2 kts | 143° |
| 2026-05-05 18:30 | 36.58799 | -121.84980 | 177 ft | 0 kts | 114° |
| 2026-05-05 18:30 | 36.58801 | -121.84989 | 177 ft | 0 kts | 110° |
| 2026-05-05 18:31 | 36.58801 | -121.84990 | 177 ft | 0 kts | 110° |
| 2026-05-05 18:32 | 36.58801 | -121.84989 | 177 ft | 0 kts | 110° |
| 2026-05-05 18:33 | 36.58800 | -121.84987 | 177 ft | 1 kts | 110° |
| 2026-05-05 18:33 | 36.58778 | -121.84917 | 180 ft | 12 kts | 112° |
| 2026-05-05 18:33 | 36.58744 | -121.84813 | 186 ft | 13 kts | 113° |
| 2026-05-05 18:33 | 36.58696 | -121.84676 | 193 ft | 18 kts | 115° |
| 2026-05-05 18:34 | 36.58630 | -121.84521 | 203 ft | 23 kts | 113° |
| 2026-05-05 18:34 | 36.58561 | -121.84315 | 216 ft | 25 kts | 112° |
| 2026-05-05 18:34 | 36.58499 | -121.84132 | 227 ft | 20 kts | 112° |
| 2026-05-05 18:34 | 36.58442 | -121.83968 | 236 ft | 22 kts | 114° |
| 2026-05-05 18:35 | 36.58378 | -121.83779 | 243 ft | 23 kts | 112° |
| 2026-05-05 18:35 | 36.58318 | -121.83601 | 246 ft | 21 kts | 113° |
| 2026-05-05 18:35 | 36.58282 | -121.83422 | 247 ft | 21 kts | 86° |
| 2026-05-05 18:35 | 36.58343 | -121.83385 | 246 ft | 12 kts | 298° |
| 2026-05-05 18:36 | 36.58431 | -121.83645 | 246 ft | 67 kts | 292° |
| 2026-05-05 18:36 | 36.58711 | -121.84473 | 203 ft | 138 kts | 292° |
| 2026-05-05 18:36 | 36.59136 | -121.85729 | 564 ft | 159 kts | 293° |
| 2026-05-05 18:36 | 36.59553 | -121.86959 | 1321 ft | 156 kts | 297° |
| 2026-05-05 18:37 | 36.60165 | -121.88035 | 2043 ft | 154 kts | 321° |
| 2026-05-05 18:37 | 36.61107 | -121.88698 | 2578 ft | 164 kts | 338° |
| 2026-05-05 18:37 | 36.62237 | -121.89220 | 3044 ft | 180 kts | 341° |
| 2026-05-05 18:37 | 36.63483 | -121.89749 | 3517 ft | 197 kts | 341° |
| 2026-05-05 18:38 | 36.64845 | -121.90323 | 3967 ft | 217 kts | 342° |
| 2026-05-05 18:38 | 36.66352 | -121.90958 | 4441 ft | 238 kts | 342° |
| 2026-05-05 18:38 | 36.67989 | -121.91652 | 5041 ft | 254 kts | 342° |
| 2026-05-05 18:38 | 36.69681 | -121.92419 | 5905 ft | 259 kts | 335° |
| 2026-05-05 18:39 | 36.71040 | -121.93874 | 6767 ft | 267 kts | 306° |
| 2026-05-05 18:39 | 36.71999 | -121.95854 | 7672 ft | 268 kts | 310° |
| 2026-05-05 18:39 | 36.73445 | -121.97279 | 8503 ft | 263 kts | 343° |
| 2026-05-05 18:39 | 36.75214 | -121.97395 | 9405 ft | 260 kts | 13° |
| 2026-05-05 18:40 | 36.76860 | -121.96484 | 10320 ft | 262 kts | 33° |
| 2026-05-05 18:40 | 36.78168 | -121.94769 | 10898 ft | 282 kts | 54° |
| 2026-05-05 18:40 | 36.78794 | -121.92326 | 11282 ft | 315 kts | 81° |
| 2026-05-05 18:40 | 36.78376 | -121.89507 | 11683 ft | 346 kts | 107° |
| 2026-05-05 18:41 | 36.77289 | -121.86771 | 12415 ft | 355 kts | 112° |
| 2026-05-05 18:41 | 36.76109 | -121.84023 | 13205 ft | 358 kts | 112° |
| 2026-05-05 18:41 | 36.74939 | -121.81271 | 13932 ft | 361 kts | 111° |
| 2026-05-05 18:41 | 36.73778 | -121.78485 | 14634 ft | 365 kts | 110° |
| 2026-05-05 18:42 | 36.72611 | -121.75644 | 15314 ft | 369 kts | 111° |
| 2026-05-05 18:42 | 36.71437 | -121.72764 | 16041 ft | 371 kts | 111° |
| 2026-05-05 18:42 | 36.70264 | -121.69883 | 16708 ft | 374 kts | 111° |
| 2026-05-05 18:42 | 36.69125 | -121.67087 | 17332 ft | 377 kts | 110° |
| 2026-05-05 18:43 | 36.67934 | -121.64165 | 17981 ft | 380 kts | 110° |
| 2026-05-05 18:43 | 36.66973 | -121.61113 | 18562 ft | 376 kts | 98° |
| 2026-05-05 18:43 | 36.66582 | -121.57886 | 19187 ft | 370 kts | 86° |
| 2026-05-05 18:43 | 36.66685 | -121.54695 | 19839 ft | 366 kts | 80° |
| 2026-05-05 18:44 | 36.66901 | -121.51498 | 20440 ft | 368 kts | 79° |
| 2026-05-05 18:44 | 36.67127 | -121.48268 | 21036 ft | 370 kts | 79° |
| 2026-05-05 18:44 | 36.67348 | -121.45072 | 21547 ft | 374 kts | 79° |
| 2026-05-05 18:44 | 36.67571 | -121.41762 | 22105 ft | 376 kts | 79° |
| 2026-05-05 18:45 | 36.67785 | -121.38505 | 22643 ft | 379 kts | 80° |
| 2026-05-05 18:45 | 36.68002 | -121.35184 | 23183 ft | 380 kts | 79° |
| 2026-05-05 18:45 | 36.68219 | -121.31805 | 23700 ft | 382 kts | 80° |
| 2026-05-05 18:45 | 36.68423 | -121.28602 | 24192 ft | 384 kts | 80° |
| 2026-05-05 18:46 | 36.68636 | -121.25208 | 24709 ft | 386 kts | 80° |
| 2026-05-05 18:46 | 36.68849 | -121.21830 | 25192 ft | 388 kts | 80° |
| 2026-05-05 18:46 | 36.69050 | -121.18626 | 25643 ft | 389 kts | 80° |
| 2026-05-05 18:46 | 36.69266 | -121.15172 | 26137 ft | 390 kts | 80° |
| 2026-05-05 18:47 | 36.69480 | -121.11736 | 26607 ft | 392 kts | 80° |
| 2026-05-05 18:47 | 36.69693 | -121.08320 | 27077 ft | 392 kts | 80° |
| 2026-05-05 18:47 | 36.69901 | -121.04926 | 27536 ft | 393 kts | 79° |
| 2026-05-05 18:47 | 36.70113 | -121.01483 | 27948 ft | 395 kts | 79° |
| 2026-05-05 18:48 | 36.70319 | -120.98120 | 28367 ft | 396 kts | 80° |
| 2026-05-05 18:48 | 36.70528 | -120.94675 | 28767 ft | 398 kts | 79° |
| 2026-05-05 18:48 | 36.70735 | -120.91235 | 29154 ft | 399 kts | 80° |
| 2026-05-05 18:48 | 36.70945 | -120.87804 | 29534 ft | 400 kts | 80° |
| 2026-05-05 18:49 | 36.71151 | -120.84331 | 29951 ft | 400 kts | 79° |
| 2026-05-05 18:49 | 36.71427 | -120.80887 | 30348 ft | 397 kts | 77° |
| 2026-05-05 18:49 | 36.71833 | -120.77485 | 30801 ft | 393 kts | 75° |
| 2026-05-05 18:49 | 36.72365 | -120.74166 | 31254 ft | 388 kts | 72° |
| 2026-05-05 18:50 | 36.73011 | -120.70911 | 31650 ft | 386 kts | 71° |
| 2026-05-05 18:50 | 36.73689 | -120.67669 | 31986 ft | 385 kts | 70° |
| 2026-05-05 18:50 | 36.74374 | -120.64397 | 32376 ft | 383 kts | 70° |
| 2026-05-05 18:50 | 36.75040 | -120.61227 | 32752 ft | 381 kts | 71° |
| 2026-05-05 18:51 | 36.75711 | -120.58019 | 33115 ft | 380 kts | 71° |
| 2026-05-05 18:51 | 36.76378 | -120.54836 | 33474 ft | 377 kts | 70° |
| 2026-05-05 18:51 | 36.77040 | -120.51666 | 33790 ft | 377 kts | 71° |
| 2026-05-05 18:51 | 36.77700 | -120.48499 | 34069 ft | 376 kts | 70° |
| 2026-05-05 18:52 | 36.78362 | -120.45326 | 34344 ft | 375 kts | 70° |
| 2026-05-05 18:52 | 36.79016 | -120.42184 | 34568 ft | 375 kts | 70° |
| 2026-05-05 18:52 | 36.79676 | -120.39021 | 34742 ft | 377 kts | 70° |
| 2026-05-05 18:52 | 36.80333 | -120.35862 | 34902 ft | 379 kts | 71° |
| 2026-05-05 18:53 | 36.80986 | -120.32712 | 35078 ft | 380 kts | 71° |
| 2026-05-05 18:53 | 36.81538 | -120.30048 | 35227 ft | 382 kts | 71° |
| 2026-05-05 18:53 | 36.82200 | -120.26856 | 35391 ft | 383 kts | 71° |
| 2026-05-05 18:53 | 36.82853 | -120.23698 | 35525 ft | 384 kts | 71° |
| 2026-05-05 18:54 | 36.83520 | -120.20459 | 35654 ft | 387 kts | 72° |
| 2026-05-05 18:54 | 36.84199 | -120.17161 | 35774 ft | 388 kts | 71° |
| 2026-05-05 18:54 | 36.84875 | -120.13867 | 35876 ft | 391 kts | 71° |
| 2026-05-05 18:54 | 36.85554 | -120.10564 | 36014 ft | 393 kts | 72° |
| 2026-05-05 18:55 | 36.86229 | -120.07277 | 36178 ft | 394 kts | 72° |
| 2026-05-05 18:55 | 36.86910 | -120.03952 | 36332 ft | 396 kts | 71° |
| 2026-05-05 18:55 | 36.87593 | -120.00605 | 36438 ft | 397 kts | 72° |
| 2026-05-05 18:55 | 36.88238 | -119.97445 | 36565 ft | 399 kts | 72° |
| 2026-05-05 18:56 | 36.88924 | -119.94078 | 36670 ft | 401 kts | 71° |
| 2026-05-05 18:56 | 36.89675 | -119.90699 | 36777 ft | 401 kts | 69° |
| 2026-05-05 18:56 | 36.91566 | -119.84109 | 36942 ft | 403 kts | 65° |
| 2026-05-05 18:57 | 36.93691 | -119.77597 | 37036 ft | 405 kts | 65° |
| 2026-05-05 18:57 | 36.95835 | -119.71043 | 37037 ft | 406 kts | 65° |
| 2026-05-05 18:58 | 36.97970 | -119.64498 | 37025 ft | 407 kts | 65° |
| 2026-05-05 18:58 | 37.00114 | -119.57923 | 37029 ft | 407 kts | 65° |
| 2026-05-05 18:59 | 37.02248 | -119.51344 | 37014 ft | 407 kts | 65° |
| 2026-05-05 18:59 | 37.04372 | -119.44807 | 37034 ft | 407 kts | 65° |
| 2026-05-05 19:00 | 37.06511 | -119.38194 | 37045 ft | 408 kts | 65° |
| 2026-05-05 19:00 | 37.08561 | -119.31840 | 37051 ft | 409 kts | 65° |
| 2026-05-05 19:01 | 37.10623 | -119.25444 | 37064 ft | 409 kts | 66° |
| 2026-05-05 19:01 | 37.12761 | -119.18790 | 37030 ft | 408 kts | 65° |
| 2026-05-05 19:02 | 37.14825 | -119.12357 | 37002 ft | 408 kts | 65° |
| 2026-05-05 19:02 | 37.16901 | -119.05869 | 37010 ft | 409 kts | 65° |
| 2026-05-05 19:03 | 37.19005 | -118.99276 | 37011 ft | 410 kts | 65° |
| 2026-05-05 19:03 | 37.21136 | -118.92586 | 37024 ft | 410 kts | 65° |
| 2026-05-05 19:04 | 37.23247 | -118.85935 | 37004 ft | 409 kts | 65° |
| 2026-05-05 19:04 | 37.25324 | -118.79302 | 36995 ft | 409 kts | 68° |
| 2026-05-05 19:05 | 37.26980 | -118.72443 | 37002 ft | 412 kts | 73° |
| 2026-05-05 19:05 | 37.28084 | -118.65356 | 36998 ft | 415 kts | 78° |
| 2026-05-05 19:06 | 37.28711 | -118.58143 | 36995 ft | 417 kts | 80° |
| 2026-05-05 19:06 | 37.29269 | -118.50887 | 37007 ft | 418 kts | 80° |
| 2026-05-05 19:07 | 37.29823 | -118.43634 | 37009 ft | 415 kts | 80° |
| 2026-05-05 19:07 | 37.30369 | -118.36414 | 37018 ft | 418 kts | 81° |
| 2026-05-05 19:08 | 37.30906 | -118.29228 | 37013 ft | 418 kts | 81° |
| 2026-05-05 19:08 | 37.31451 | -118.21966 | 37014 ft | 418 kts | 81° |
| 2026-05-05 19:09 | 37.31985 | -118.14689 | 37015 ft | 419 kts | 81° |
| 2026-05-05 19:09 | 37.32520 | -118.07361 | 37004 ft | 419 kts | 81° |
| 2026-05-05 19:10 | 37.33052 | -118.00047 | 36972 ft | 420 kts | 82° |
| 2026-05-05 19:10 | 37.33579 | -117.92725 | 37002 ft | 420 kts | 81° |
| 2026-05-05 19:11 | 37.34101 | -117.85410 | 37003 ft | 421 kts | 81° |
| 2026-05-05 19:11 | 37.34620 | -117.78082 | 37020 ft | 420 kts | 82° |
| 2026-05-05 19:12 | 37.35131 | -117.70743 | 37001 ft | 422 kts | 81° |
| 2026-05-05 19:12 | 37.35641 | -117.63419 | 37021 ft | 424 kts | 82° |
| 2026-05-05 19:13 | 37.36144 | -117.56016 | 37013 ft | 422 kts | 82° |
| 2026-05-05 19:13 | 37.36644 | -117.48680 | 37002 ft | 424 kts | 82° |
| 2026-05-05 19:14 | 37.37141 | -117.41302 | 36981 ft | 424 kts | 82° |
| 2026-05-05 19:14 | 37.37230 | -117.33865 | 36994 ft | 429 kts | 93° |
| 2026-05-05 19:15 | 37.35896 | -117.26691 | 36986 ft | 438 kts | 106° |
| 2026-05-05 19:15 | 37.33265 | -117.20225 | 36980 ft | 445 kts | 120° |
| 2026-05-05 19:16 | 37.29262 | -117.14169 | 36986 ft | 451 kts | 128° |
| 2026-05-05 19:16 | 37.25035 | -117.08322 | 36977 ft | 452 kts | 128° |
| 2026-05-05 19:17 | 37.20813 | -117.02465 | 37117 ft | 452 kts | 128° |
| 2026-05-05 19:17 | 37.16592 | -116.96610 | 37003 ft | 451 kts | 128° |
| 2026-05-05 19:18 | 37.12304 | -116.90819 | 36975 ft | 452 kts | 132° |
| 2026-05-05 19:18 | 37.07590 | -116.85612 | 36963 ft | 455 kts | 139° |
| 2026-05-05 19:19 | 37.04976 | -116.83195 | 36728 ft | 456 kts | 141° |
| 2026-05-05 19:19 | 37.02316 | -116.80919 | 36494 ft | 454 kts | 142° |
| 2026-05-05 19:19 | 36.99702 | -116.78679 | 36230 ft | 451 kts | 141° |
| 2026-05-05 19:19 | 36.97121 | -116.76470 | 35874 ft | 448 kts | 141° |
| 2026-05-05 19:20 | 36.94529 | -116.74253 | 35382 ft | 446 kts | 140° |
| 2026-05-05 19:20 | 36.91940 | -116.72034 | 34815 ft | 446 kts | 140° |
| 2026-05-05 19:20 | 36.89364 | -116.69825 | 34196 ft | 447 kts | 139° |
| 2026-05-05 19:20 | 36.86826 | -116.67654 | 33604 ft | 448 kts | 139° |
| 2026-05-05 19:21 | 36.84223 | -116.65421 | 33009 ft | 449 kts | 139° |
| 2026-05-05 19:21 | 36.81638 | -116.63201 | 32354 ft | 452 kts | 139° |
| 2026-05-05 19:21 | 36.79002 | -116.60945 | 31633 ft | 455 kts | 139° |
| 2026-05-05 19:21 | 36.76342 | -116.58670 | 30859 ft | 457 kts | 139° |
| 2026-05-05 19:22 | 36.73691 | -116.56408 | 30074 ft | 459 kts | 140° |
| 2026-05-05 19:22 | 36.71048 | -116.54155 | 29295 ft | 458 kts | 140° |
| 2026-05-05 19:22 | 36.68388 | -116.51884 | 28753 ft | 452 kts | 139° |
| 2026-05-05 19:22 | 36.65934 | -116.49542 | 28239 ft | 442 kts | 135° |
| 2026-05-05 19:23 | 36.63626 | -116.46925 | 27704 ft | 434 kts | 131° |
| 2026-05-05 19:23 | 36.61582 | -116.44199 | 27168 ft | 427 kts | 127° |
| 2026-05-05 19:23 | 36.59609 | -116.41408 | 26655 ft | 422 kts | 127° |
| 2026-05-05 19:23 | 36.57665 | -116.38639 | 26131 ft | 417 kts | 128° |
| 2026-05-05 19:24 | 36.55764 | -116.35937 | 25628 ft | 412 kts | 128° |
| 2026-05-05 19:24 | 36.53879 | -116.33263 | 25108 ft | 408 kts | 129° |
| 2026-05-05 19:24 | 36.51994 | -116.30596 | 24586 ft | 403 kts | 129° |
| 2026-05-05 19:24 | 36.50140 | -116.27980 | 24074 ft | 399 kts | 129° |
| 2026-05-05 19:25 | 36.48282 | -116.25362 | 23569 ft | 395 kts | 129° |
| 2026-05-05 19:25 | 36.46463 | -116.22801 | 23272 ft | 388 kts | 130° |
| 2026-05-05 19:25 | 36.44672 | -116.20287 | 23024 ft | 387 kts | 129° |
| 2026-05-05 19:25 | 36.42876 | -116.17768 | 22533 ft | 384 kts | 130° |
| 2026-05-05 19:26 | 36.41108 | -116.15286 | 22073 ft | 380 kts | 130° |
| 2026-05-05 19:26 | 36.39341 | -116.12811 | 21617 ft | 377 kts | 130° |
| 2026-05-05 19:26 | 36.37598 | -116.10365 | 21176 ft | 374 kts | 129° |
| 2026-05-05 19:26 | 36.35870 | -116.07945 | 20733 ft | 371 kts | 129° |
| 2026-05-05 19:27 | 36.34149 | -116.05534 | 20275 ft | 368 kts | 129° |
| 2026-05-05 19:27 | 36.32433 | -116.03131 | 19830 ft | 365 kts | 129° |
| 2026-05-05 19:27 | 36.30750 | -116.00776 | 19393 ft | 362 kts | 130° |
| 2026-05-05 19:27 | 36.29116 | -115.98493 | 19234 ft | 351 kts | 129° |
| 2026-05-05 19:28 | 36.27508 | -115.96252 | 19117 ft | 338 kts | 129° |
| 2026-05-05 19:28 | 36.25957 | -115.94089 | 19004 ft | 327 kts | 129° |
| 2026-05-05 19:28 | 36.24517 | -115.91973 | 18912 ft | 319 kts | 126° |
| 2026-05-05 19:28 | 36.23106 | -115.89738 | 18930 ft | 325 kts | 126° |
| 2026-05-05 19:29 | 36.21706 | -115.87512 | 18933 ft | 326 kts | 126° |
| 2026-05-05 19:29 | 36.20295 | -115.85268 | 18930 ft | 326 kts | 126° |
| 2026-05-05 19:29 | 36.18893 | -115.83044 | 18890 ft | 328 kts | 126° |
| 2026-05-05 19:29 | 36.17487 | -115.80821 | 18458 ft | 329 kts | 126° |
| 2026-05-05 19:30 | 36.16070 | -115.78583 | 18060 ft | 327 kts | 126° |
| 2026-05-05 19:30 | 36.14697 | -115.76334 | 17675 ft | 324 kts | 122° |
| 2026-05-05 19:30 | 36.13565 | -115.73929 | 17289 ft | 320 kts | 114° |
| 2026-05-05 19:30 | 36.12686 | -115.71371 | 16909 ft | 317 kts | 109° |
| 2026-05-05 19:31 | 36.11904 | -115.68826 | 16543 ft | 315 kts | 109° |
| 2026-05-05 19:31 | 36.11131 | -115.66272 | 16174 ft | 312 kts | 109° |
| 2026-05-05 19:31 | 36.10368 | -115.63758 | 15808 ft | 311 kts | 109° |
| 2026-05-05 19:31 | 36.09609 | -115.61276 | 15430 ft | 310 kts | 109° |
| 2026-05-05 19:32 | 36.08831 | -115.58742 | 14998 ft | 311 kts | 109° |
| 2026-05-05 19:32 | 36.08059 | -115.56234 | 14584 ft | 310 kts | 109° |
| 2026-05-05 19:32 | 36.07293 | -115.53751 | 14204 ft | 308 kts | 109° |
| 2026-05-05 19:32 | 36.06525 | -115.51266 | 13816 ft | 305 kts | 109° |
| 2026-05-05 19:33 | 36.05772 | -115.48828 | 13505 ft | 302 kts | 110° |
| 2026-05-05 19:33 | 36.05019 | -115.46395 | 13116 ft | 300 kts | 110° |
| 2026-05-05 19:33 | 36.04277 | -115.44005 | 12803 ft | 296 kts | 110° |
| 2026-05-05 19:33 | 36.03534 | -115.41605 | 12490 ft | 291 kts | 110° |
| 2026-05-05 19:34 | 36.02811 | -115.39276 | 12138 ft | 290 kts | 110° |
| 2026-05-05 19:34 | 36.02099 | -115.36919 | 11766 ft | 289 kts | 107° |
| 2026-05-05 19:34 | 36.01619 | -115.34472 | 11393 ft | 287 kts | 99° |
| 2026-05-05 19:35 | 36.01302 | -115.29611 | 10686 ft | 284 kts | 94° |
| 2026-05-05 19:35 | 36.01195 | -115.27173 | 10347 ft | 282 kts | 94° |
| 2026-05-05 19:35 | 36.01085 | -115.24746 | 10036 ft | 279 kts | 94° |
| 2026-05-05 19:35 | 36.00970 | -115.22324 | 9721 ft | 277 kts | 94° |
| 2026-05-05 19:36 | 36.00854 | -115.19952 | 9405 ft | 275 kts | 94° |
| 2026-05-05 19:36 | 36.00747 | -115.17776 | 9304 ft | 265 kts | 95° |
| 2026-05-05 19:36 | 36.00635 | -115.15529 | 9218 ft | 254 kts | 95° |
| 2026-05-05 19:36 | 36.00528 | -115.13371 | 9123 ft | 243 kts | 95° |
| 2026-05-05 19:37 | 36.00422 | -115.11276 | 9034 ft | 241 kts | 95° |
| 2026-05-05 19:37 | 36.00315 | -115.09196 | 8806 ft | 243 kts | 95° |
| 2026-05-05 19:37 | 36.00207 | -115.07094 | 8509 ft | 242 kts | 95° |
| 2026-05-05 19:37 | 36.00101 | -115.05034 | 8225 ft | 241 kts | 95° |
| 2026-05-05 19:38 | 35.99994 | -115.02948 | 8016 ft | 236 kts | 95° |
| 2026-05-05 19:38 | 35.99897 | -115.00930 | 7988 ft | 235 kts | 92° |
| 2026-05-05 19:38 | 35.99869 | -114.98869 | 7646 ft | 239 kts | 91° |
| 2026-05-05 19:38 | 35.99863 | -114.96808 | 7294 ft | 241 kts | 91° |
| 2026-05-05 19:39 | 35.99863 | -114.94713 | 6958 ft | 242 kts | 91° |
| 2026-05-05 19:39 | 35.99997 | -114.92623 | 6640 ft | 243 kts | 72° |
| 2026-05-05 19:39 | 36.00973 | -114.90931 | 6290 ft | 244 kts | 34° |
| 2026-05-05 19:39 | 36.02451 | -114.89926 | 6013 ft | 241 kts | 24° |
| 2026-05-05 19:40 | 36.04066 | -114.89432 | 5655 ft | 240 kts | 352° |
| 2026-05-05 19:40 | 36.05608 | -114.90180 | 5389 ft | 233 kts | 322° |
| 2026-05-05 19:40 | 36.06884 | -114.91397 | 5142 ft | 229 kts | 317° |
| 2026-05-05 19:40 | 36.07824 | -114.92975 | 4811 ft | 224 kts | 281° |
| 2026-05-05 19:41 | 36.07842 | -114.94813 | 4752 ft | 207 kts | 261° |
| 2026-05-05 19:41 | 36.07651 | -114.96556 | 4603 ft | 199 kts | 261° |
| 2026-05-05 19:41 | 36.07501 | -114.98171 | 4370 ft | 183 kts | 262° |
| 2026-05-05 19:41 | 36.07413 | -114.99712 | 4048 ft | 175 kts | 265° |
| 2026-05-05 19:42 | 36.07385 | -115.01163 | 3807 ft | 160 kts | 267° |
| 2026-05-05 19:42 | 36.07382 | -115.02482 | 3587 ft | 145 kts | 268° |
| 2026-05-05 19:42 | 36.07383 | -115.03696 | 3401 ft | 137 kts | 267° |
| 2026-05-05 19:42 | 36.07380 | -115.04858 | 3244 ft | 136 kts | 267° |
| 2026-05-05 19:43 | 36.07378 | -115.06046 | 3076 ft | 136 kts | 266° |
| 2026-05-05 19:43 | 36.07375 | -115.07211 | 2908 ft | 136 kts | 266° |
| 2026-05-05 19:43 | 36.07375 | -115.08376 | 2737 ft | 136 kts | 266° |
| 2026-05-05 19:43 | 36.07378 | -115.09544 | 2544 ft | 136 kts | 267° |
| 2026-05-05 19:44 | 36.07378 | -115.10711 | 2377 ft | 135 kts | 266° |
| 2026-05-05 19:44 | 36.07372 | -115.11877 | 2215 ft | 135 kts | 266° |
| 2026-05-05 19:44 | 36.07368 | -115.13053 | 2078 ft | 132 kts | 266° |
| 2026-05-05 19:44 | 36.07360 | -115.14056 | 2097 ft | 95 kts | 270° |
| 2026-05-05 19:45 | 36.07367 | -115.14675 | 2117 ft | 57 kts | 274° |
| 2026-05-05 19:45 | 36.07434 | -115.14970 | 2127 ft | 19 kts | 297° |
| 2026-05-05 19:45 | 36.07499 | -115.15102 | 2131 ft | 16 kts | 307° |
| 2026-05-05 19:45 | 36.07592 | -115.15180 | 2132 ft | 16 kts | 339° |
| 2026-05-05 19:46 | 36.07699 | -115.15232 | 2133 ft | 16 kts | 338° |
| 2026-05-05 19:46 | 36.07808 | -115.15292 | 2133 ft | 17 kts | 333° |
| 2026-05-05 19:46 | 36.07928 | -115.15366 | 2134 ft | 20 kts | 333° |
| 2026-05-05 19:46 | 36.08067 | -115.15440 | 2134 ft | 22 kts | 347° |
| 2026-05-05 19:47 | 36.08223 | -115.15440 | 2132 ft | 22 kts | 348° |
| 2026-05-05 19:47 | 36.08371 | -115.15447 | 2130 ft | 19 kts | 43° |
| 2026-05-05 19:47 | 36.08401 | -115.15404 | 2128 ft | 8 kts | 50° |
| 2026-05-05 19:47 | 36.08465 | -115.15385 | 2127 ft | 7 kts | 333° |
| 2026-05-05 19:48 | 36.08488 | -115.15398 | 2127 ft | 0 kts | 336° |